Time;durP1;ratioP1;P1;durP2;ratioP2;P2;SDS_P1;SDS_P2;PMS_P1;PMS_P2;Temp;Humidity;BMP_temperature;BMP_pressure;BME280_temperature;BME280_humidity;BME280_pressure;Samples;Min_cycle;Max_cycle;Signal;HPM_P1;HPM_P2
2022/08/25 00:01:20;;;;;;;3.50;1.67;;;22.30;99.90;;;;;;4986661;28;20050;-61
2022/08/25 00:03:51;;;;;;;3.80;1.52;;;22.40;99.90;;;;;;4969755;28;20078;-61
2022/08/25 00:06:18;;;;;;;4.72;2.20;;;22.40;99.90;;;;;;4986907;28;20078;-61
2022/08/25 00:08:44;;;;;;;5.57;1.52;;;22.40;99.90;;;;;;4986636;28;20086;-61
2022/08/25 00:11:14;;;;;;;3.17;1.92;;;22.50;99.90;;;;;;4987552;28;20086;-61
2022/08/25 00:13:46;;;;;;;3.35;2.00;;;22.50;99.90;;;;;;4988226;28;20046;-62
2022/08/25 00:16:15;;;;;;;2.92;2.05;;;22.40;99.90;;;;;;4988342;28;20101;-61
2022/08/25 00:18:44;;;;;;;3.45;1.70;;;22.40;99.90;;;;;;4988469;28;20061;-62
2022/08/25 00:21:12;;;;;;;2.92;2.00;;;22.40;99.90;;;;;;4988121;28;20058;-61
2022/08/25 00:23:39;;;;;;;3.53;1.83;;;22.30;99.90;;;;;;4988097;28;20121;-61
2022/08/25 00:26:06;;;;;;;2.70;1.75;;;22.30;99.90;;;;;;4988680;28;20050;-62
2022/08/25 00:28:33;;;;;;;2.47;1.70;;;22.20;99.90;;;;;;4991783;28;20078;-62
2022/08/25 00:31:00;;;;;;;2.25;1.50;;;22.20;99.90;;;;;;4992197;28;20129;-62
2022/08/25 00:33:27;;;;;;;2.45;1.60;;;22.10;99.90;;;;;;4991823;28;20047;-61
2022/08/25 00:35:55;;;;;;;3.63;1.33;;;22.20;99.90;;;;;;4991843;28;20046;-60
2022/08/25 00:38:22;;;;;;;2.92;1.88;;;22.20;99.90;;;;;;4991594;28;20050;-60
2022/08/25 00:41:04;;;;;;;3.72;2.20;;;22.20;99.90;;;;;;4991624;28;20050;-62
2022/08/25 00:43:41;;;;;;;2.85;1.83;;;22.20;99.90;;;;;;4976658;28;20517;-63
2022/08/25 00:46:08;;;;;;;2.28;1.55;;;22.10;99.90;;;;;;4991019;28;20107;-62
2022/08/25 00:48:35;;;;;;;2.53;1.83;;;22.10;99.90;;;;;;4991681;28;20058;-62
2022/08/25 00:51:02;;;;;;;2.33;1.52;;;22.10;99.90;;;;;;4991514;28;20101;-61
2022/08/25 00:53:29;;;;;;;3.30;1.60;;;22.10;99.90;;;;;;4974293;28;20125;-62
2022/08/25 00:55:57;;;;;;;2.40;1.77;;;22.10;99.90;;;;;;4974359;28;20125;-62
2022/08/25 00:58:26;;;;;;;2.03;1.50;;;22.10;99.90;;;;;;4974566;28;20081;-61
2022/08/25 01:00:54;;;;;;;5.68;1.60;;;22.00;99.90;;;;;;4991255;28;20148;-61
2022/08/25 01:03:21;;;;;;;4.25;1.80;;;22.00;99.90;;;;;;4991086;28;20074;-59
2022/08/25 01:05:59;;;;;;;2.58;1.30;;;21.90;99.90;;;;;;4991219;28;20082;-61
2022/08/25 01:08:27;;;;;;;2.00;1.52;;;22.00;99.90;;;;;;4973816;28;20042;-61
2022/08/25 01:10:55;;;;;;;2.67;1.88;;;22.00;99.90;;;;;;4991065;28;20050;-62
2022/08/25 01:13:30;;;;;;;2.08;1.40;;;22.00;99.90;;;;;;4973819;28;20097;-61
2022/08/25 01:15:57;;;;;;;3.17;1.50;;;22.00;99.90;;;;;;4974553;28;20046;-61
2022/08/25 01:18:49;;;;;;;2.38;1.81;;;22.00;99.90;;;;;;4929813;28;10001167;-61
2022/08/25 01:21:17;;;;;;;4.00;2.15;;;21.90;99.90;;;;;;4988278;28;20788;-61
2022/08/25 01:23:45;;;;;;;3.05;1.40;;;21.90;99.90;;;;;;4989975;28;20382;-60
2022/08/25 01:26:20;;;;;;;8.30;1.70;;;21.90;99.90;;;;;;4991061;28;20134;-60
2022/08/25 01:31:42;;;;;;;2.88;1.83;;;21.80;99.90;;;;;;4976133;28;20118;-61
2022/08/25 01:34:11;;;;;;;3.80;1.35;;;21.90;99.90;;;;;;4990684;28;20079;-60
2022/08/25 01:36:38;;;;;;;6.68;2.05;;;21.80;99.90;;;;;;4990844;28;20097;-60
2022/08/25 01:39:05;;;;;;;5.95;1.70;;;21.90;99.90;;;;;;4990459;28;20493;-60
2022/08/25 01:41:44;;;;;;;3.38;1.85;;;21.90;99.90;;;;;;4973399;28;20082;-60
2022/08/25 01:44:11;;;;;;;4.00;1.80;;;22.00;99.90;;;;;;4990666;28;20089;-61
2022/08/25 01:46:42;;;;;;;5.28;1.40;;;22.00;99.90;;;;;;4980872;28;20096;-60
2022/08/25 01:49:09;;;;;;;4.60;1.95;;;22.00;99.90;;;;;;4973229;28;20141;-61
2022/08/25 01:51:43;;;;;;;2.88;1.60;;;22.00;99.90;;;;;;4990432;28;20125;-61
2022/08/25 01:54:10;;;;;;;2.95;2.08;;;21.90;99.90;;;;;;4973008;28;20093;-61
2022/08/25 01:56:37;;;;;;;3.75;1.70;;;21.80;99.90;;;;;;4990338;28;20125;-61
2022/08/25 01:59:04;;;;;;;4.03;1.73;;;21.90;99.90;;;;;;4990557;28;20074;-60
2022/08/25 02:01:31;;;;;;;2.63;1.73;;;22.00;99.90;;;;;;4989944;28;20081;-61
2022/08/25 02:03:58;;;;;;;4.15;1.63;;;22.00;99.90;;;;;;4990128;28;20053;-61
2022/08/25 02:06:27;;;;;;;2.42;1.63;;;22.00;99.90;;;;;;4990105;28;20086;-60
2022/08/25 02:08:58;;;;;;;2.45;1.55;;;22.00;99.90;;;;;;4990373;28;20073;-60
2022/08/25 02:11:24;;;;;;;2.50;1.95;;;21.90;99.90;;;;;;4990119;28;20089;-61
2022/08/25 02:13:51;;;;;;;3.10;2.10;;;21.70;99.90;;;;;;4989929;28;20055;-61
2022/08/25 02:16:27;;;;;;;4.13;2.22;;;21.60;99.90;;;;;;4990507;28;20085;-61
2022/08/25 02:18:54;;;;;;;3.03;2.00;;;21.70;99.90;;;;;;4972910;28;20050;-61
2022/08/25 02:21:21;;;;;;;4.55;1.77;;;21.60;99.90;;;;;;4990294;28;20464;-62
2022/08/25 02:23:48;;;;;;;2.25;2.05;;;21.60;99.90;;;;;;4972256;28;20047;-61
2022/08/25 02:26:17;;;;;;;3.40;2.30;;;21.50;99.90;;;;;;4972749;28;20137;-61
2022/08/25 02:28:45;;;;;;;8.55;3.05;;;21.50;99.90;;;;;;4989806;28;20101;-61
2022/08/25 02:31:12;;;;;;;6.47;2.55;;;21.40;99.90;;;;;;4972448;28;20097;-61
2022/08/25 02:33:39;;;;;;;7.47;3.45;;;21.30;99.90;;;;;;4989601;28;20437;-61
2022/08/25 02:36:06;;;;;;;5.85;3.83;;;21.30;99.90;;;;;;4989742;28;20085;-61
2022/08/25 02:38:33;;;;;;;7.38;3.72;;;21.20;99.90;;;;;;4972291;28;20129;-62
2022/08/25 02:41:00;;;;;;;6.90;3.60;;;21.20;99.90;;;;;;4989618;28;20050;-61
2022/08/25 02:43:27;;;;;;;9.90;3.63;;;21.40;99.90;;;;;;4989454;28;20074;-62
2022/08/25 02:45:55;;;;;;;6.07;3.20;;;21.50;99.90;;;;;;4961834;28;20137;-62
2022/08/25 02:48:22;;;;;;;6.80;2.97;;;21.50;99.90;;;;;;4989327;28;20101;-62
2022/08/25 02:50:51;;;;;;;7.38;2.85;;;21.60;99.90;;;;;;4989309;28;20084;-61
2022/08/25 02:53:19;;;;;;;8.35;4.07;;;21.60;99.90;;;;;;4987758;28;20236;-60
2022/08/25 02:55:46;;;;;;;8.25;3.40;;;21.70;99.90;;;;;;4975024;28;20042;-60
2022/08/25 02:58:13;;;;;;;9.60;3.40;;;21.50;99.90;;;;;;4989321;28;20105;-61
2022/08/25 03:00:40;;;;;;;9.43;3.53;;;21.30;99.90;;;;;;4989232;28;20879;-61
2022/08/25 03:03:08;;;;;;;6.03;2.80;;;21.20;99.90;;;;;;4989018;28;20054;-61
2022/08/25 03:05:35;;;;;;;6.30;3.67;;;21.10;99.90;;;;;;4989178;28;20092;-61
2022/08/25 03:08:03;;;;;;;8.15;2.83;;;21.10;99.90;;;;;;4972012;28;20680;-61
2022/08/25 03:10:30;;;;;;;6.00;3.40;;;21.10;99.90;;;;;;4989197;28;20129;-61
2022/08/25 03:12:57;;;;;;;6.22;3.70;;;21.20;99.90;;;;;;4989157;28;20101;-61
2022/08/25 03:15:26;;;;;;;4.75;3.15;;;21.40;99.90;;;;;;4988915;28;20481;-61
2022/08/25 03:17:56;;;;;;;5.93;2.53;;;21.40;99.90;;;;;;4988799;28;20050;-61
2022/08/25 03:20:26;;;;;;;8.00;2.70;;;21.50;99.90;;;;;;4988542;28;20053;-61
2022/08/25 03:22:53;;;;;;;7.63;3.17;;;21.60;99.90;;;;;;4988707;28;20093;-61
2022/08/25 03:28:06;;;;;;;6.22;2.95;;;21.70;99.90;;;;;;4988772;28;20077;-60
2022/08/25 03:30:33;;;;;;;4.95;2.35;;;21.70;99.90;;;;;;4988607;28;20137;-61
2022/08/25 03:33:00;;;;;;;6.90;2.67;;;21.60;99.90;;;;;;4988540;28;20073;-60
2022/08/25 03:35:26;;;;;;;11.15;2.65;;;21.60;99.90;;;;;;4988432;28;20105;-60
2022/08/25 03:37:57;;;;;;;8.55;2.88;;;21.70;99.90;;;;;;4988683;28;20132;-61
2022/08/25 03:40:24;;;;;;;3.88;2.20;;;21.70;99.90;;;;;;4988450;28;20070;-61
2022/08/25 03:42:51;;;;;;;4.20;2.53;;;21.80;99.90;;;;;;4988671;28;20046;-61
2022/08/25 03:45:18;;;;;;;5.43;2.38;;;21.70;99.90;;;;;;4988460;28;20088;-60
2022/08/25 03:47:48;;;;;;;4.50;2.63;;;21.60;99.90;;;;;;4988656;28;20077;-61
2022/08/25 03:50:15;;;;;;;4.57;2.50;;;21.70;99.90;;;;;;4987429;28;20066;-60
2022/08/25 03:52:42;;;;;;;5.50;2.55;;;21.70;99.90;;;;;;4988809;28;20082;-60
2022/08/25 03:55:10;;;;;;;3.58;2.13;;;21.60;99.90;;;;;;4988523;28;20128;-60
2022/08/25 03:57:37;;;;;;;5.57;2.47;;;21.50;99.90;;;;;;4988688;28;20047;-61
2022/08/25 04:00:06;;;;;;;7.93;2.60;;;21.50;99.90;;;;;;4988200;28;20506;-60
2022/08/25 04:02:34;;;;;;;4.28;2.20;;;21.60;99.90;;;;;;4988657;28;20088;-61
2022/08/25 04:05:01;;;;;;;5.40;2.83;;;21.50;99.90;;;;;;4992190;28;20732;-61
2022/08/25 04:07:28;;;;;;;6.78;2.78;;;21.50;99.90;;;;;;4992301;28;20050;-62
2022/08/25 04:09:55;;;;;;;5.93;2.88;;;21.50;99.90;;;;;;4992421;28;20042;-60
2022/08/25 04:12:22;;;;;;;3.83;2.30;;;21.40;99.90;;;;;;4974930;28;20113;-61
2022/08/25 04:14:49;;;;;;;6.70;2.95;;;21.30;99.90;;;;;;4992229;28;20141;-61
2022/08/25 04:17:16;;;;;;;6.05;2.60;;;21.20;99.90;;;;;;4992180;28;20086;-61
2022/08/25 04:19:43;;;;;;;7.25;3.75;;;21.10;99.90;;;;;;4992206;28;20046;-61
2022/08/25 04:22:10;;;;;;;10.32;3.30;;;21.00;99.90;;;;;;4991972;28;20505;-62
2022/08/25 04:24:39;;;;;;;8.32;4.10;;;20.90;99.90;;;;;;4975365;28;20053;-62
2022/08/25 04:27:05;;;;;;;21.05;5.03;;;20.90;99.90;;;;;;4991895;28;20145;-62
2022/08/25 04:29:32;;;;;;;24.05;6.68;;;20.90;99.90;;;;;;4992468;28;20057;-61
2022/08/25 04:31:59;;;;;;;15.80;5.60;;;20.90;99.90;;;;;;4991919;28;20121;-62
2022/08/25 04:34:26;;;;;;;7.45;3.67;;;20.80;99.90;;;;;;4974956;28;20454;-61
2022/08/25 04:37:01;;;;;;;14.40;5.47;;;20.60;99.90;;;;;;4971769;28;20050;-62
2022/08/25 04:39:28;;;;;;;11.10;4.95;;;20.30;99.90;;;;;;4992027;28;20461;-61
2022/08/25 04:41:54;;;;;;;10.45;5.97;;;20.20;99.90;;;;;;4990135;28;20051;-61
2022/08/25 04:44:21;;;;;;;11.80;4.82;;;20.30;99.90;;;;;;4992038;28;20081;-61
2022/08/25 04:46:48;;;;;;;8.40;4.97;;;20.50;99.90;;;;;;4991734;28;20093;-61
2022/08/25 04:49:15;;;;;;;8.68;4.70;;;20.60;99.90;;;;;;4991911;28;20058;-61
2022/08/25 04:51:42;;;;;;;13.00;5.38;;;20.60;99.90;;;;;;4991809;28;20058;-60
2022/08/25 04:54:11;;;;;;;15.43;6.07;;;20.70;99.90;;;;;;4991672;28;20062;-60
2022/08/25 04:56:39;;;;;;;16.13;6.38;;;20.60;99.90;;;;;;4992353;28;20054;-61
2022/08/25 04:59:08;;;;;;;27.10;6.75;;;20.70;99.90;;;;;;4974384;28;20088;-61
2022/08/25 05:01:36;;;;;;;29.58;8.55;;;20.60;99.90;;;;;;4991217;28;20140;-60
2022/08/25 05:04:04;;;;;;;25.17;7.65;;;20.40;99.90;;;;;;4973803;28;20697;-59
2022/08/25 05:06:30;;;;;;;23.13;7.15;;;20.10;99.90;;;;;;4991349;28;20046;-60
2022/08/25 05:08:58;;;;;;;19.02;7.57;;;19.70;99.90;;;;;;4991235;28;20046;-62
2022/08/25 05:11:25;;;;;;;18.13;7.93;;;19.50;99.90;;;;;;4991163;28;20671;-62
2022/08/25 05:13:54;;;;;;;11.73;6.85;;;19.50;99.90;;;;;;4990731;28;20100;-61
2022/08/25 05:16:22;;;;;;;12.65;6.60;;;19.50;99.90;;;;;;4974136;28;20042;-62
2022/08/25 05:18:49;;;;;;;25.55;7.55;;;19.50;99.90;;;;;;4951886;28;20506;-62
2022/08/25 05:21:21;;;;;;;13.30;6.25;;;19.60;99.90;;;;;;4973808;28;20093;-62
2022/08/25 05:23:48;;;;;;;15.35;6.13;;;19.70;99.90;;;;;;4973842;28;20105;-63
2022/08/25 05:26:19;;;;;;;10.98;6.55;;;19.60;99.90;;;;;;4991058;28;20050;-61
2022/08/25 05:28:48;;;;;;;9.30;5.85;;;19.70;99.90;;;;;;4973808;28;20050;-61
2022/08/25 05:31:15;;;;;;;12.52;6.28;;;19.60;99.90;;;;;;4973665;28;20690;-62
2022/08/25 05:33:43;;;;;;;13.52;6.68;;;19.50;99.90;;;;;;4990398;28;20073;-61
2022/08/25 05:36:10;;;;;;;14.55;7.22;;;19.50;99.90;;;;;;4990858;28;20097;-61
2022/08/25 05:38:38;;;;;;;12.95;6.80;;;19.60;99.90;;;;;;4973616;28;20133;-61
2022/08/25 05:41:09;;;;;;;20.80;7.50;;;19.60;99.90;;;;;;4973553;28;20116;-61
2022/08/25 05:43:37;;;;;;;8.27;5.80;;;19.70;99.90;;;;;;4973725;28;20054;-61
2022/08/25 05:46:04;;;;;;;11.95;6.38;;;19.80;99.90;;;;;;4989187;28;20084;-60
2022/08/25 05:48:30;;;;;;;9.02;5.93;;;19.80;99.90;;;;;;4973484;28;20061;-60
2022/08/25 05:50:58;;;;;;;8.45;4.78;;;19.90;99.90;;;;;;4990349;28;20497;-61
2022/08/25 05:53:26;;;;;;;10.80;7.20;;;19.80;99.90;;;;;;4988364;28;20146;-61
2022/08/25 05:55:57;;;;;;;12.65;7.78;;;19.70;99.90;;;;;;4990389;28;20046;-60
2022/08/25 05:58:26;;;;;;;8.98;7.72;;;19.60;99.90;;;;;;4990441;28;20506;-61
2022/08/25 06:00:53;;;;;;;11.65;8.73;;;19.60;99.90;;;;;;4990052;28;20145;-62
2022/08/25 06:03:20;;;;;;;11.93;9.07;;;19.60;99.90;;;;;;4990015;28;20520;-63
2022/08/25 06:05:47;;;;;;;13.45;9.68;;;19.60;99.90;;;;;;4990019;28;20159;-62
2022/08/25 06:08:15;;;;;;;15.70;10.75;;;19.60;99.90;;;;;;4990059;28;20104;-62
2022/08/25 06:10:41;;;;;;;15.23;11.05;;;19.60;99.90;;;;;;4972914;28;20042;-61
2022/08/25 06:13:08;;;;;;;17.35;11.10;;;19.70;99.90;;;;;;4990219;28;20077;-62
2022/08/25 06:15:35;;;;;;;13.18;10.30;;;19.70;99.90;;;;;;4989859;28;20080;-61
2022/08/25 06:18:02;;;;;;;14.65;9.63;;;19.80;99.90;;;;;;4990398;28;20101;-60
2022/08/25 06:20:30;;;;;;;14.43;11.10;;;19.80;99.90;;;;;;4989701;28;20050;-61
2022/08/25 06:22:57;;;;;;;16.00;9.80;;;19.80;99.90;;;;;;4989790;28;20105;-62
2022/08/25 06:25:24;;;;;;;15.27;10.27;;;19.80;99.90;;;;;;4988692;28;20065;-62
2022/08/25 06:27:52;;;;;;;13.13;10.07;;;19.80;99.90;;;;;;4990084;28;20054;-63
2022/08/25 06:30:20;;;;;;;13.02;8.60;;;19.80;99.90;;;;;;4972367;28;20070;-61
2022/08/25 06:32:54;;;;;;;10.50;8.40;;;19.80;99.90;;;;;;4989205;28;20050;-60
2022/08/25 06:35:21;;;;;;;11.02;9.30;;;19.70;99.90;;;;;;4989172;28;20077;-61
2022/08/25 06:37:48;;;;;;;11.40;8.80;;;19.60;99.90;;;;;;4989478;28;20107;-63
2022/08/25 06:40:15;;;;;;;10.93;8.95;;;19.50;99.90;;;;;;4989276;28;20054;-61
2022/08/25 06:42:47;;;;;;;17.58;11.68;;;19.50;99.90;;;;;;4984532;28;20067;-61
2022/08/25 06:45:13;;;;;;;14.23;10.48;;;19.50;99.90;;;;;;4971417;28;20047;-67
2022/08/25 06:47:41;;;;;;;15.38;9.75;;;19.50;99.90;;;;;;4988345;28;20078;-62
2022/08/25 06:50:11;;;;;;;10.45;8.60;;;19.60;99.90;;;;;;4989308;28;20141;-61
2022/08/25 06:52:38;;;;;;;9.80;7.75;;;19.60;99.90;;;;;;4988915;28;20046;-61
2022/08/25 06:55:05;;;;;;;18.48;8.68;;;19.70;99.90;;;;;;4971852;28;20080;-62
2022/08/25 06:57:34;;;;;;;15.45;9.82;;;19.70;99.90;;;;;;4989494;28;20050;-63
2022/08/25 07:00:04;;;;;;;14.32;10.10;;;19.60;99.90;;;;;;4988753;28;20113;-62
2022/08/25 07:02:32;;;;;;;19.75;11.93;;;19.50;99.90;;;;;;4986330;28;20102;-61
2022/08/25 07:05:01;;;;;;;16.30;12.52;;;19.50;99.90;;;;;;4984734;28;20073;-61
2022/08/25 07:07:30;;;;;;;15.40;10.43;;;19.50;99.90;;;;;;4984675;28;20078;-61
2022/08/25 07:10:09;;;;;;;16.83;11.77;;;19.60;99.90;;;;;;4981002;28;20050;-62
2022/08/25 07:12:35;;;;;;;15.48;11.05;;;19.50;99.90;;;;;;4980967;28;20134;-61
2022/08/25 07:15:03;;;;;;;13.02;10.85;;;19.50;99.90;;;;;;4971336;28;20042;-62
2022/08/25 07:17:45;;;;;;;10.88;9.77;;;19.60;99.90;;;;;;4638993;28;10000978;-60
2022/08/25 07:20:12;;;;;;;14.05;10.93;;;19.60;99.90;;;;;;4982738;28;20301;-62
2022/08/25 07:22:40;;;;;;;11.20;9.25;;;19.60;99.90;;;;;;4959556;28;20077;-63
2022/08/25 07:25:10;;;;;;;14.90;9.38;;;19.70;99.90;;;;;;4985382;28;20089;-63
2022/08/25 07:27:37;;;;;;;14.45;9.75;;;19.60;99.90;;;;;;4958248;28;20093;-62
2022/08/25 07:30:07;;;;;;;13.13;9.18;;;19.60;99.90;;;;;;4977401;28;20051;-63
2022/08/25 07:32:37;;;;;;;15.52;9.70;;;19.60;99.90;;;;;;4978696;28;20046;-62
2022/08/25 07:35:18;;;;;;;11.77;8.75;;;19.70;99.90;;;;;;4983212;28;20058;-61
2022/08/25 07:37:47;;;;;;;12.15;8.68;;;19.70;99.90;;;;;;4981641;28;20177;-60
2022/08/25 07:40:19;;;;;;;10.55;8.50;;;19.80;99.90;;;;;;4982591;28;20624;-61
2022/08/25 07:42:51;;;;;;;10.95;6.65;;;19.80;99.90;;;;;;4968323;28;20085;-61
2022/08/25 07:45:19;;;;;;;9.75;6.53;;;19.80;99.90;;;;;;4967222;28;20101;-61
2022/08/25 07:47:46;;;;;;;10.25;5.63;;;19.80;99.90;;;;;;4984555;28;20058;-61
2022/08/25 07:50:17;;;;;;;8.98;5.30;;;19.80;99.90;;;;;;4968990;28;20050;-63
2022/08/25 07:52:45;;;;;;;8.35;5.63;;;19.70;99.90;;;;;;4974175;28;20058;-62
2022/08/25 07:55:19;;;;;;;7.40;5.90;;;19.70;99.90;;;;;;4974994;28;20070;-64
2022/08/25 07:57:46;;;;;;;12.75;6.32;;;19.70;99.90;;;;;;4983261;28;20120;-62
2022/08/25 08:00:21;;;;;;;11.40;6.68;;;19.70;99.90;;;;;;4983134;28;20109;-62
2022/08/25 08:02:50;;;;;;;9.23;6.07;;;19.70;99.90;;;;;;4985202;28;20058;-62
2022/08/25 08:05:16;;;;;;;8.10;6.03;;;19.80;99.90;;;;;;4967765;28;20154;-63
2022/08/25 08:07:43;;;;;;;10.10;6.43;;;19.90;99.90;;;;;;4985360;28;20524;-62
2022/08/25 08:10:12;;;;;;;13.43;6.35;;;19.90;99.90;;;;;;4984760;28;20055;-63
2022/08/25 08:12:59;;;;;;;9.05;5.10;;;19.90;99.90;;;;;;4984671;28;20049;-63
2022/08/25 08:15:26;;;;;;;6.32;4.07;;;19.90;99.90;;;;;;4984993;28;20061;-63
2022/08/25 08:17:56;;;;;;;10.63;4.35;;;19.80;99.90;;;;;;4985197;28;20081;-63
2022/08/25 08:20:24;;;;;;;8.68;4.85;;;19.80;99.90;;;;;;4984918;28;20054;-62
2022/08/25 08:22:51;;;;;;;5.95;4.55;;;19.80;99.90;;;;;;4984606;28;20081;-63
2022/08/25 08:25:18;;;;;;;11.52;4.97;;;19.90;99.90;;;;;;4983328;28;20133;-62
2022/08/25 08:27:50;;;;;;;8.68;5.18;;;20.00;99.90;;;;;;4983850;28;20042;-62
2022/08/25 08:30:20;;;;;;;9.35;5.13;;;19.90;99.90;;;;;;4966830;28;20498;-67
2022/08/25 08:32:51;;;;;;;9.43;5.15;;;19.90;99.90;;;;;;4983464;28;20081;-64
2022/08/25 08:35:35;;;;;;;7.65;5.43;;;20.00;99.90;;;;;;4983574;28;20043;-63
2022/08/25 08:38:03;;;;;;;6.70;5.32;;;19.90;99.90;;;;;;4966072;28;20078;-62
2022/08/25 08:43:52;;;;;;;9.05;6.03;;;19.80;99.90;;;;;;4958387;28;20106;-68
2022/08/25 08:46:22;;;;;;;11.77;5.63;;;19.80;99.90;;;;;;4965752;28;20576;-62
2022/08/25 08:49:15;;;;;;;6.93;4.63;;;19.90;99.90;;;;;;4971232;28;20086;-64
2022/08/25 08:51:50;;;;;;;6.60;5.07;;;19.90;99.90;;;;;;4971520;28;20073;-62
2022/08/25 08:54:19;;;;;;;7.72;4.45;;;19.90;99.90;;;;;;4971400;28;20604;-63
2022/08/25 08:56:49;;;;;;;6.80;5.20;;;20.00;99.90;;;;;;4971315;28;20060;-63
2022/08/25 08:59:21;;;;;;;7.78;4.45;;;20.00;99.90;;;;;;4971361;28;20058;-63
2022/08/25 09:01:58;;;;;;;7.25;4.60;;;20.00;99.90;;;;;;4972881;28;20129;-63
2022/08/25 09:04:36;;;;;;;8.40;5.05;;;19.80;99.90;;;;;;4971797;28;20042;-63
2022/08/25 09:07:06;;;;;;;10.48;5.10;;;19.80;99.90;;;;;;4971232;28;20042;-64
2022/08/25 09:09:35;;;;;;;6.13;4.45;;;19.80;99.90;;;;;;4976419;28;20157;-62
2022/08/25 09:12:32;;;;;;;6.82;4.75;;;19.80;99.90;;;;;;4988406;28;20576;-63
2022/08/25 09:15:06;;;;;;;10.00;6.50;;;19.90;99.90;;;;;;4988485;28;20050;-62
2022/08/25 09:17:55;;;;;;;10.80;5.65;;;19.90;99.90;;;;;;4987874;28;20050;-62
2022/08/25 09:20:33;;;;;;;7.63;4.88;;;19.90;99.90;;;;;;4982145;28;20068;-63
2022/08/25 09:23:08;;;;;;;7.07;5.57;;;19.80;99.90;;;;;;4970471;28;20509;-62
2022/08/25 09:25:59;;;;;;;9.95;6.72;;;19.70;99.90;;;;;;4965506;28;20089;-63
2022/08/25 09:28:49;;;;;;;8.20;6.25;;;19.60;99.90;;;;;;4971841;28;20077;-63
2022/08/25 09:31:34;;;;;;;6.35;5.75;;;19.40;99.90;;;;;;4971297;28;20054;-62
2022/08/25 09:34:03;;;;;;;13.10;7.85;;;19.40;99.90;;;;;;4968587;28;20445;-63
2022/08/25 09:36:31;;;;;;;9.77;6.70;;;19.50;99.90;;;;;;4971249;28;20057;-62
2022/08/25 09:39:06;;;;;;;8.75;5.95;;;19.60;99.90;;;;;;4970807;28;20085;-62
2022/08/25 09:41:44;;;;;;;7.60;6.68;;;19.70;99.90;;;;;;4990454;28;20573;-61
2022/08/25 09:44:29;;;;;;;7.35;6.53;;;19.70;99.90;;;;;;4990444;28;20165;-63
2022/08/25 09:47:06;;;;;;;10.05;6.93;;;19.70;99.90;;;;;;4990432;28;20105;-62
2022/08/25 09:49:41;;;;;;;15.05;7.43;;;19.80;99.90;;;;;;4973868;28;20054;-61
2022/08/25 09:52:36;;;;;;;8.02;5.75;;;19.80;99.90;;;;;;4973046;28;20162;-62
2022/08/25 09:55:14;;;;;;;4.85;3.65;;;19.70;99.90;;;;;;4989491;28;20084;-63
2022/08/25 09:57:41;;;;;;;5.88;4.65;;;19.70;99.90;;;;;;4988041;28;20050;-62
2022/08/25 10:00:17;;;;;;;7.15;5.00;;;19.60;99.90;;;;;;4990172;28;20421;-62
2022/08/25 10:03:09;;;;;;;7.00;5.20;;;19.70;99.90;;;;;;4988600;28;20505;-63
2022/08/25 10:06:07;;;;;;;7.47;4.80;;;19.80;99.90;;;;;;4979967;28;20161;-62
2022/08/25 10:08:42;;;;;;;9.20;5.25;;;19.70;99.90;;;;;;4969054;28;20047;-64
2022/08/25 10:11:12;;;;;;;7.95;5.32;;;19.80;99.90;;;;;;4985714;28;20105;-67
2022/08/25 10:13:45;;;;;;;7.03;5.78;;;19.80;99.90;;;;;;4973040;28;20537;-64
2022/08/25 10:16:32;;;;;;;7.93;6.38;;;19.90;99.90;;;;;;4972785;28;20050;-63
2022/08/25 10:19:10;;;;;;;12.32;5.35;;;19.80;99.90;;;;;;4983002;28;20068;-62
2022/08/25 10:21:39;;;;;;;6.05;4.82;;;19.90;99.90;;;;;;4954000;28;20047;-62
2022/08/25 10:24:07;;;;;;;5.63;4.30;;;19.90;99.90;;;;;;4957601;28;20050;-62
2022/08/25 10:27:12;;;;;;;5.55;4.03;;;19.90;99.90;;;;;;4974840;28;20042;-62
2022/08/25 10:29:45;;;;;;;4.43;3.55;;;19.90;99.90;;;;;;4986946;28;20077;-61
2022/08/25 10:32:19;;;;;;;4.20;3.00;;;19.90;99.90;;;;;;4990210;28;20494;-62
2022/08/25 10:34:49;;;;;;;4.72;2.33;;;19.90;99.90;;;;;;4625917;28;9999744;-62
2022/08/25 10:37:32;;;;;;;3.35;1.83;;;19.90;99.90;;;;;;4978117;28;20149;-62
2022/08/25 10:40:09;;;;;;;3.55;1.70;;;19.90;99.90;;;;;;4981697;28;20057;-62
2022/08/25 10:42:59;;;;;;;3.67;2.00;;;20.00;99.90;;;;;;4945562;28;20055;-62
2022/08/25 10:45:42;;;;;;;2.67;2.05;;;20.00;99.90;;;;;;4965106;28;20051;-62
2022/08/25 10:48:21;;;;;;;3.30;2.28;;;20.10;99.90;;;;;;4983504;28;20140;-62
2022/08/25 10:51:26;;;;;;;4.13;2.72;;;20.10;99.90;;;;;;4987895;28;20462;-62
2022/08/25 10:54:04;;;;;;;8.00;3.58;;;20.20;99.90;;;;;;4957641;28;20050;-63
2022/08/25 10:56:57;;;;;;;2.60;2.20;;;20.20;99.90;;;;;;4987075;28;20042;-60
2022/08/25 10:59:30;;;;;;;3.42;2.30;;;20.20;99.90;;;;;;4956683;28;20569;-62
2022/08/25 11:02:34;;;;;;;2.30;2.08;;;20.10;99.90;;;;;;4971475;28;20501;-62
2022/08/25 11:05:09;;;;;;;8.85;3.22;;;20.00;99.90;;;;;;4984572;28;20084;-63
2022/08/25 11:08:04;;;;;;;4.18;2.20;;;20.10;99.90;;;;;;4986141;28;20050;-63
2022/08/25 11:10:44;;;;;;;2.15;1.95;;;20.20;99.90;;;;;;4968463;28;20140;-63
2022/08/25 11:13:42;;;;;;;4.45;3.05;;;20.10;99.90;;;;;;4968559;28;20050;-63
2022/08/25 11:16:17;;;;;;;8.57;3.28;;;20.20;99.90;;;;;;4965593;28;20053;-63
2022/08/25 11:18:55;;;;;;;4.85;2.45;;;20.10;99.90;;;;;;4962653;28;20077;-62
2022/08/25 11:21:44;;;;;;;2.30;2.08;;;20.20;99.90;;;;;;4981932;28;20137;-69
2022/08/25 11:24:39;;;;;;;5.28;2.83;;;20.30;99.90;;;;;;4963029;28;20058;-63
2022/08/25 11:27:10;;;;;;;6.78;2.75;;;20.40;99.90;;;;;;4961416;28;20049;-62
2022/08/25 11:29:40;;;;;;;2.57;2.30;;;20.40;99.90;;;;;;4961176;28;20877;-62
2022/08/25 11:32:07;;;;;;;3.75;2.95;;;20.50;99.90;;;;;;4985204;28;20483;-63
2022/08/25 11:34:35;;;;;;;4.95;3.53;;;20.60;99.90;;;;;;4984678;28;20406;-62
2022/08/25 11:37:18;;;;;;;3.08;2.60;;;20.60;99.90;;;;;;4984668;28;20054;-62
2022/08/25 11:39:49;;;;;;;3.33;2.80;;;20.70;99.90;;;;;;4963796;28;20065;-63
2022/08/25 11:42:48;;;;;;;2.45;1.92;;;20.70;99.90;;;;;;4980059;28;20055;-63
2022/08/25 11:45:27;;;;;;;5.82;2.58;;;20.80;99.90;;;;;;4982264;28;20497;-62
2022/08/25 11:48:20;;;;;;;4.03;2.40;;;20.90;99.90;;;;;;4968560;28;20046;-63
2022/08/25 11:50:58;;;;;;;4.82;1.90;;;21.00;99.90;;;;;;4968245;28;20104;-62
2022/08/25 11:53:30;;;;;;;3.58;2.22;;;21.00;99.90;;;;;;4983639;28;20116;-62
2022/08/25 11:56:09;;;;;;;2.72;1.85;;;21.10;99.90;;;;;;4951891;28;20073;-63
2022/08/25 11:58:49;;;;;;;2.58;1.70;;;21.10;99.90;;;;;;4953143;28;20077;-63
2022/08/25 12:01:38;;;;;;;5.38;1.67;;;21.10;99.90;;;;;;4967954;28;20054;-64
2022/08/25 12:04:12;;;;;;;2.50;1.55;;;20.80;99.90;;;;;;4981977;28;20100;-64
2022/08/25 12:07:05;;;;;;;6.10;1.50;;;20.60;99.90;;;;;;4984827;28;20054;-62
2022/08/25 12:09:33;;;;;;;2.22;1.40;;;20.60;99.90;;;;;;4984396;28;20081;-63
2022/08/25 12:12:49;;;;;;;4.30;2.22;;;20.60;99.90;;;;;;4967443;28;20184;-62
2022/08/25 12:15:23;;;;;;;8.60;2.67;;;20.60;99.90;;;;;;4969060;28;20066;-62
2022/08/25 12:18:13;;;;;;;3.30;1.75;;;20.60;99.90;;;;;;4985134;28;20185;-62
2022/08/25 12:20:55;;;;;;;3.90;1.92;;;20.50;99.90;;;;;;4968768;28;20063;-62
2022/08/25 12:23:29;;;;;;;6.50;1.88;;;20.60;99.90;;;;;;4987498;28;20054;-62
2022/08/25 12:25:57;;;;;;;5.38;1.45;;;20.80;99.90;;;;;;4989111;28;20461;-63
2022/08/25 12:28:41;;;;;;;2.88;2.15;;;21.00;99.90;;;;;;4971338;28;20069;-62
2022/08/25 12:31:42;;;;;;;4.95;2.00;;;21.00;99.90;;;;;;4949719;28;20409;-62
2022/08/25 12:34:25;;;;;;;2.72;1.80;;;21.20;99.90;;;;;;4972070;28;20133;-63
2022/08/25 12:37:10;;;;;;;;;;;21.30;99.90;;;;;;4966054;28;20105;-62
2022/08/25 12:39:43;;;;;;;2.97;1.50;;;21.30;99.90;;;;;;4989167;28;19961;-61
2022/08/25 12:42:22;;;;;;;1.45;1.35;;;21.30;99.90;;;;;;4972360;28;20065;-62
2022/08/25 12:45:12;;;;;;;3.22;1.30;;;21.30;99.90;;;;;;4988422;28;20845;-62
2022/08/25 12:47:41;;;;;;;1.52;1.15;;;21.40;99.90;;;;;;4987992;28;20050;-63
2022/08/25 12:50:38;;;;;;;3.05;1.48;;;21.50;99.90;;;;;;4971222;28;20086;-63
2022/08/25 12:53:13;;;;;;;3.85;1.60;;;21.50;99.90;;;;;;4971429;28;20081;-63
2022/08/25 12:55:51;;;;;;;4.50;1.65;;;21.60;99.90;;;;;;4985115;28;20129;-65
2022/08/25 12:58:20;;;;;;;3.90;1.85;;;21.60;99.90;;;;;;4972598;28;20050;-63
2022/08/25 13:01:12;;;;;;;3.10;1.85;;;21.70;99.90;;;;;;4964785;28;20100;-64
2022/08/25 13:04:54;;;;;;;1.80;1.30;;;21.80;99.90;;;;;;4973960;28;20105;-62
2022/08/25 13:07:24;;;;;;;2.38;1.75;;;21.70;99.90;;;;;;4922473;29;20091;-63
2022/08/25 13:09:59;;;;;;;2.85;1.48;;;21.60;99.90;;;;;;4980547;28;20088;-62
2022/08/25 13:12:49;;;;;;;5.43;2.00;;;21.70;99.90;;;;;;4989604;28;20074;-61
2022/08/25 13:15:36;;;;;;;6.28;2.42;;;21.90;99.90;;;;;;4990352;28;20525;-61
2022/08/25 13:18:20;;;;;;;4.05;2.00;;;21.90;99.90;;;;;;4992047;28;20058;-62
2022/08/25 13:20:49;;;;;;;5.15;1.65;;;21.80;99.90;;;;;;4971969;28;20046;-62